Time;durP1;ratioP1;P1;durP2;ratioP2;P2;SDS_P1;SDS_P2;PMS_P1;PMS_P2;Temp;Humidity;BMP_temperature;BMP_pressure;BME280_temperature;BME280_humidity;BME280_pressure;Samples;Min_cycle;Max_cycle;Signal;HPM_P1;HPM_P2
2022/05/25 00:01:57;;;;;;;;;53.75;41.50;;;;;20.46;46.64;97985.88;4850094;28;103533;-74
2022/05/25 00:04:24;;;;;;;;;59.75;45.25;;;;;20.53;46.75;98001.25;4831553;28;101990;-75
2022/05/25 00:06:51;;;;;;;;;61.25;45.00;;;;;20.52;46.84;98005.91;4841651;28;102251;-74
2022/05/25 00:09:18;;;;;;;;;57.50;44.25;;;;;20.52;47.00;98008.66;4837831;28;102319;-74
2022/05/25 00:11:45;;;;;;;;;55.25;43.75;;;;;20.51;46.90;98009.75;4855300;28;103415;-74
2022/05/25 00:14:13;;;;;;;;;59.25;42.75;;;;;20.52;46.61;98008.66;4855520;28;101823;-74
2022/05/25 00:16:40;;;;;;;;;57.75;42.00;;;;;20.51;46.67;98001.50;4858408;28;102310;-74
2022/05/25 00:21:53;;;;;;;;;59.75;44.50;;;;;20.51;46.68;98000.69;4858189;28;108133;-74
2022/05/25 00:24:20;;;;;;;;;53.00;40.75;;;;;20.51;46.69;97996.03;4851335;28;102095;-74
2022/05/25 00:26:48;;;;;;;;;57.50;43.75;;;;;20.52;46.85;98002.34;4856122;28;102150;-74
2022/05/25 00:29:15;;;;;;;;;55.75;43.25;;;;;20.51;46.77;97995.19;4837649;28;102359;-74
2022/05/25 00:31:42;;;;;;;;;53.75;42.50;;;;;20.50;46.92;97994.38;4851336;28;103488;-74
2022/05/25 00:34:09;;;;;;;;;52.50;39.75;;;;;20.51;46.86;98000.69;4857552;28;101695;-74
2022/05/25 00:36:37;;;;;;;;;52.25;42.00;;;;;20.51;46.73;98003.44;4851479;28;103753;-75
2022/05/25 00:39:05;;;;;;;;;55.75;41.00;;;;;20.49;46.78;98004.53;4848139;28;103091;-74
2022/05/25 00:41:32;;;;;;;;;58.75;42.25;;;;;20.50;46.99;97999.88;4849680;28;103624;-75
2022/05/25 00:44:00;;;;;;;;;59.50;43.00;;;;;20.48;46.92;98000.16;4852933;28;101789;-74
2022/05/25 00:46:27;;;;;;;;;55.25;40.25;;;;;20.49;46.75;98001.78;4860318;28;104165;-74
2022/05/25 00:49:02;;;;;;;;;52.50;39.00;;;;;20.49;46.85;98001.78;4828387;28;102359;-75
2022/05/25 00:51:35;;;;;;;;;56.00;41.00;;;;;20.48;46.75;98000.16;4839624;28;103423;-74
2022/05/25 00:54:05;;;;;;;;;55.00;41.75;;;;;20.48;46.78;98002.91;4840563;28;104177;-75
2022/05/25 00:56:33;;;;;;;;;48.50;37.00;;;;;20.47;47.06;98017.72;4850521;28;101807;-74
2022/05/25 00:59:08;;;;;;;;;55.25;37.75;;;;;20.47;46.99;98020.47;4838328;28;102997;-74
2022/05/25 01:01:35;;;;;;;;;53.25;39.00;;;;;20.46;46.54;98027.06;4845760;28;103656;-74
2022/05/25 01:04:02;;;;;;;;;52.75;41.00;;;;;20.48;46.88;98024.88;4845629;28;104872;-74
2022/05/25 01:07:11;;;;;;;;;48.75;38.50;;;;;20.47;46.96;98025.97;4831573;28;102215;-74
2022/05/25 01:10:05;;;;;;;;;53.00;39.75;;;;;20.48;47.05;98024.06;4809378;28;101966;-74
2022/05/25 01:12:42;;;;;;;;;55.50;41.00;;;;;20.47;46.87;98027.91;4793890;28;107945;-75
2022/05/25 01:15:12;;;;;;;;;50.75;40.25;;;;;20.47;47.07;98027.91;4817202;28;102093;-75
2022/05/25 01:18:04;;;;;;;;;48.00;38.50;;;;;20.46;46.98;98042.72;4833860;28;102177;-74
2022/05/25 01:20:49;;;;;;;;;53.00;40.00;;;;;20.45;47.01;98039.16;4845476;28;102164;-74
2022/05/25 01:23:31;;;;;;;;;50.75;38.75;;;;;20.45;46.61;98041.06;4807317;28;108227;-74
2022/05/25 01:26:24;;;;;;;;;49.75;38.25;;;;;20.42;47.05;98031.47;4849566;28;102089;-74
2022/05/25 01:28:57;;;;;;;;;56.25;40.25;;;;;20.45;47.03;98036.41;4835003;28;102190;-74
2022/05/25 01:31:30;;;;;;;;;52.25;40.50;;;;;20.44;46.49;98032.00;4847787;28;104932;-74
2022/05/25 01:34:29;;;;;;;;;48.75;39.25;;;;;20.44;46.81;98040.25;4813749;28;103403;-74
2022/05/25 01:37:10;;;;;;;;;49.75;38.50;;;;;20.44;46.93;98043.00;4816344;28;101932;-74
2022/05/25 01:39:41;;;;;;;;;53.25;38.75;;;;;20.45;47.08;98050.13;4849819;28;101986;-74
2022/05/25 01:42:10;;;;;;;;;50.25;39.50;;;;;20.44;47.13;98040.25;4845020;28;101770;-74
2022/05/25 01:44:43;;;;;;;;;49.75;39.75;;;;;20.43;47.02;98049.59;4829085;28;103431;-74
2022/05/25 01:47:11;;;;;;;;;53.00;37.25;;;;;20.44;46.75;98044.94;4821285;28;102280;-74
2022/05/25 01:49:50;;;;;;;;;49.00;39.50;;;;;20.44;47.19;98036.69;4858465;28;101817;-74
2022/05/25 01:52:20;;;;;;;;;44.50;35.25;;;;;20.44;46.91;98045.72;4844351;28;101896;-74
2022/05/25 01:54:55;;;;;;;;;48.25;36.75;;;;;20.42;47.04;98036.97;4830039;28;104031;-75
2022/05/25 01:57:25;;;;;;;;;49.25;38.00;;;;;20.42;47.26;98031.47;4857549;28;102075;-74
2022/05/25 01:59:52;;;;;;;;;48.75;37.75;;;;;20.40;46.73;98030.91;4836918;28;101791;-74
2022/05/25 02:05:08;;;;;;;;;51.75;37.75;;;;;20.43;46.94;98024.88;4849240;28;103394;-74
2022/05/25 02:08:08;;;;;;;;;49.00;38.25;;;;;20.44;46.63;98023.75;4856412;28;102033;-74
2022/05/25 02:11:03;;;;;;;;;47.75;39.25;;;;;20.44;46.52;98029.25;4824995;28;102091;-75
2022/05/25 02:13:52;;;;;;;;;48.25;37.25;;;;;20.43;46.77;98035.88;4858509;28;101812;-74
2022/05/25 02:16:19;;;;;;;;;44.25;34.75;;;;;20.42;46.91;98031.47;4854934;28;108167;-74
2022/05/25 02:19:20;;;;;;;;;51.75;37.25;;;;;20.43;46.69;98035.88;4852374;28;103690;-74
2022/05/25 02:21:56;;;;;;;;;48.50;37.25;;;;;20.42;47.08;98036.97;4840375;28;101994;-74
2022/05/25 02:24:32;;;;;;;;;49.25;38.50;;;;;20.42;46.58;98031.47;4841352;28;102115;-74
2022/05/25 02:27:33;;;;;;;;;49.75;37.50;;;;;20.41;46.68;98029.81;4843967;28;103422;-74
2022/05/25 02:30:06;;;;;;;;;45.50;37.00;;;;;20.41;46.96;98031.75;4849325;28;102028;-74
2022/05/25 02:32:38;;;;;;;;;41.50;34.75;;;;;20.40;46.72;98033.66;4820292;28;103307;-75
2022/05/25 02:35:06;;;;;;;;;49.25;35.75;;;;;20.42;46.78;98031.47;4843853;28;102413;-75
2022/05/25 02:37:33;;;;;;;;;49.50;39.75;;;;;20.41;46.81;98027.06;4823128;28;103462;-74
2022/05/25 02:40:01;;;;;;;;;44.25;33.75;;;;;20.43;46.48;98029.56;4847478;28;101730;-74
2022/05/25 02:42:28;;;;;;;;;43.25;34.25;;;;;20.43;46.52;98026.81;4830971;28;101855;-74
2022/05/25 02:44:56;;;;;;;;;43.75;34.50;;;;;20.43;46.91;98035.06;4841078;28;101898;-75
2022/05/25 02:47:23;;;;;;;;;45.75;34.50;;;;;20.43;46.40;98043.28;4831814;28;103675;-74
2022/05/25 02:49:50;;;;;;;;;40.00;32.75;;;;;20.41;46.59;98046.31;4832918;28;101685;-74
2022/05/25 02:52:18;;;;;;;;;44.50;35.50;;;;;20.40;46.56;98044.66;4837419;28;101838;-74
2022/05/25 02:54:45;;;;;;;;;45.50;35.50;;;;;20.40;46.64;98044.66;4838368;28;101948;-75
2022/05/25 02:57:12;;;;;;;;;46.50;35.25;;;;;20.40;46.64;98039.16;4828345;28;103208;-74
2022/05/25 02:59:39;;;;;;;;;45.75;34.50;;;;;20.39;46.80;98045.78;4829327;28;103657;-74
2022/05/25 03:02:06;;;;;;;;;49.50;37.25;;;;;20.39;46.96;98043.03;4833334;28;101834;-74
2022/05/25 03:04:34;;;;;;;;;43.50;32.75;;;;;20.38;46.71;98046.03;4826616;28;101875;-74
2022/05/25 03:07:01;;;;;;;;;42.75;34.00;;;;;20.38;46.92;98035.88;4828627;28;103657;-74
2022/05/25 03:09:28;;;;;;;;;43.25;35.50;;;;;20.38;46.96;98046.88;4837702;28;108703;-74
2022/05/25 03:11:56;;;;;;;;;47.50;35.00;;;;;20.39;46.95;98051.25;4828301;28;101824;-74
2022/05/25 03:14:23;;;;;;;;;37.75;33.25;;;;;20.40;46.80;98049.31;4835864;28;101953;-74
2022/05/25 03:16:50;;;;;;;;;38.00;32.50;;;;;20.38;46.63;98046.88;4832726;28;103453;-74
2022/05/25 03:19:17;;;;;;;;;42.75;33.75;;;;;20.38;46.98;98041.38;4838334;28;102087;-74
2022/05/25 03:21:45;;;;;;;;;42.50;33.75;;;;;20.38;46.73;98059.78;4838127;28;102451;-74
2022/05/25 03:24:13;;;;;;;;;38.75;32.75;;;;;20.36;46.78;98060.03;4813191;29;103251;-74
2022/05/25 03:26:41;;;;;;;;;38.25;34.00;;;;;20.36;46.65;98064.69;4839997;28;103900;-74
2022/05/25 03:29:08;;;;;;;;;46.25;36.00;;;;;20.35;46.97;98069.38;4832167;28;101658;-74
2022/05/25 03:31:36;;;;;;;;;45.75;33.25;;;;;20.36;46.50;98065.53;4832287;28;104274;-75
2022/05/25 03:34:03;;;;;;;;;41.00;32.50;;;;;20.34;46.71;98067.75;4831029;28;102584;-74
2022/05/25 03:36:30;;;;;;;;;41.00;32.50;;;;;20.33;46.99;98055.09;4834267;28;103484;-74
2022/05/25 03:38:57;;;;;;;;;40.25;33.75;;;;;20.34;46.64;98056.75;4831979;28;102143;-74
2022/05/25 03:41:24;;;;;;;;;38.25;32.25;;;;;20.33;46.48;98049.63;4836669;28;105263;-75
2022/05/25 03:43:52;;;;;;;;;38.75;31.00;;;;;20.35;46.86;98054.84;4836809;28;102129;-74
2022/05/25 03:46:19;;;;;;;;;39.50;32.75;;;;;20.36;46.93;98057.28;4838704;28;103413;-75
2022/05/25 03:48:46;;;;;;;;;35.75;29.00;;;;;20.34;46.78;98062.25;4839454;28;101967;-74
2022/05/25 03:51:13;;;;;;;;;42.25;33.75;;;;;20.35;46.99;98063.09;4841002;28;102467;-75
2022/05/25 03:53:40;;;;;;;;;40.25;33.50;;;;;20.34;46.79;98062.25;4855125;28;101824;-75
2022/05/25 03:56:08;;;;;;;;;36.50;30.25;;;;;20.34;46.84;98065.00;4853448;28;103591;-74
2022/05/25 03:58:35;;;;;;;;;38.50;31.00;;;;;20.33;46.95;98054.28;4860876;28;102169;-75
2022/05/25 04:01:02;;;;;;;;;36.75;31.75;;;;;20.33;46.78;98055.09;4857444;28;101984;-74
2022/05/25 04:03:31;;;;;;;;;39.75;32.50;;;;;20.33;46.69;98059.78;4856459;28;101730;-74
2022/05/25 04:05:58;;;;;;;;;40.50;31.50;;;;;20.32;46.61;98064.44;4856269;28;103407;-74
2022/05/25 04:08:25;;;;;;;;;38.75;31.00;;;;;20.32;46.93;98058.13;4853012;28;101985;-74
2022/05/25 04:10:52;;;;;;;;;34.50;31.00;;;;;20.34;46.58;98061.44;4858466;28;101920;-74
2022/05/25 04:13:21;;;;;;;;;39.25;31.25;;;;;20.33;46.61;98054.28;4861649;28;101685;-75
2022/05/25 04:15:48;;;;;;;;;37.50;31.50;;;;;20.33;47.00;98063.34;4850746;28;108252;-74
2022/05/25 04:18:16;;;;;;;;;35.25;32.50;;;;;20.35;46.68;98054.84;4848856;28;101822;-74
2022/05/25 04:20:43;;;;;;;;;45.00;32.75;;;;;20.33;46.56;98048.78;4855073;28;102041;-74
2022/05/25 04:23:10;;;;;;;;;38.50;29.75;;;;;20.33;46.67;98048.78;4854266;28;101977;-74
2022/05/25 04:25:39;;;;;;;;;39.00;30.25;;;;;20.32;46.63;98053.47;4851792;28;103388;-74
2022/05/25 04:28:06;;;;;;;;;45.75;34.50;;;;;20.32;46.45;98050.72;4855957;28;102067;-74
2022/05/25 04:30:33;;;;;;;;;35.25;32.25;;;;;20.32;46.94;98050.72;4865357;28;101784;-74
2022/05/25 04:33:01;;;;;;;;;35.75;30.25;;;;;20.32;46.45;98058.13;4857770;28;104210;-74
2022/05/25 04:35:28;;;;;;;;;29.50;29.00;;;;;20.31;46.53;98057.28;4860685;28;103403;-75
2022/05/25 04:37:56;;;;;;;;;32.25;30.25;;;;;20.32;46.56;98050.72;4862276;28;102466;-74
2022/05/25 04:40:37;;;;;;;;;34.50;29.50;;;;;20.31;46.86;98049.06;4849758;28;102045;-74
2022/05/25 04:43:08;;;;;;;;;39.00;28.50;;;;;20.32;46.56;98053.47;4822529;29;102677;-74
2022/05/25 04:45:42;;;;;;;;;34.25;30.75;;;;;20.32;46.87;98045.22;4829836;28;104330;-75
2022/05/25 04:48:09;;;;;;;;;36.75;29.75;;;;;20.32;46.56;98050.72;4816448;28;101634;-75
2022/05/25 04:50:40;;;;;;;;;31.50;29.00;;;;;20.32;46.67;98047.97;4829167;28;103262;-74
2022/05/25 04:53:15;;;;;;;;;29.75;28.50;;;;;20.33;46.65;98046.03;4836073;28;102438;-74
2022/05/25 04:58:35;;;;;;;;;38.00;30.50;;;;;20.33;46.87;98041.38;4827205;28;101645;-74
2022/05/25 05:01:03;;;;;;;;;40.00;29.50;;;;;20.33;46.93;98038.63;4836336;28;101689;-74
2022/05/25 05:03:30;;;;;;;;;36.75;30.50;;;;;20.34;46.77;98033.97;4824557;28;102257;-75
2022/05/25 05:05:58;;;;;;;;;29.75;24.75;;;;;20.33;46.50;98038.63;4824826;28;103521;-74
2022/05/25 05:08:25;;;;;;;;;33.25;30.25;;;;;20.32;46.52;98020.50;4836414;28;102009;-74
2022/05/25 05:10:52;;;;;;;;;33.00;26.00;;;;;20.33;46.46;98019.41;4833442;28;101946;-74
2022/05/25 05:13:19;;;;;;;;;32.50;28.50;;;;;20.32;46.52;98031.50;4841938;28;101916;-74
2022/05/25 05:15:51;;;;;;;;;34.00;30.25;;;;;20.34;46.54;98018.31;4822088;28;108351;-74
2022/05/25 05:18:19;;;;;;;;;33.25;29.25;;;;;20.34;46.79;98018.31;4833112;28;101679;-74
2022/05/25 05:20:46;;;;;;;;;31.00;27.75;;;;;20.33;46.52;98016.66;4827994;28;105329;-74
2022/05/25 05:23:13;;;;;;;;;28.75;25.25;;;;;20.34;46.46;98020.25;4838246;28;101955;-74
2022/05/25 05:25:40;;;;;;;;;35.25;29.50;;;;;20.33;46.64;98015.84;4844859;28;103546;-75
2022/05/25 05:28:10;;;;;;;;;29.50;25.50;;;;;20.34;46.52;98026.56;4833511;28;102499;-74
2022/05/25 05:30:45;;;;;;;;;29.00;26.75;;;;;20.34;46.69;98029.31;4836749;28;102498;-74
2022/05/25 11:41:55;;;;;;;;;12.67;12.00;;;;;20.21;46.88;98323.63;4667315;28;103597;-77
2022/05/25 11:44:57;;;;;;;;;13.00;12.67;;;;;20.19;46.92;98320.28;4829917;28;108173;-77
2022/05/25 11:47:30;;;;;;;;;13.67;12.00;;;;;20.19;46.57;98328.53;4842416;28;103334;-77
2022/05/25 11:50:18;;;;;;;;;14.00;11.33;;;;;20.21;46.79;98329.09;4849078;28;102168;-77
2022/05/25 11:53:06;;;;;;;;;12.67;10.33;;;;;20.20;46.42;98335.69;4867438;28;101952;-77
2022/05/25 11:56:04;;;;;;;;;13.67;11.67;;;;;20.21;46.88;98342.00;4846947;28;108804;-77
2022/05/25 11:58:46;;;;;;;;;10.67;10.33;;;;;20.19;46.85;98347.75;4849026;28;101712;-77
2022/05/25 12:01:34;;;;;;;;;13.33;13.00;;;;;20.20;46.70;98349.41;4849691;28;101922;-77
2022/05/25 12:04:25;;;;;;;;;11.67;11.00;;;;;20.20;46.61;98343.09;4867680;28;102093;-77
2022/05/25 12:07:31;;;;;;;;;11.00;10.00;;;;;20.17;46.79;98341.72;4858631;28;108448;-77
2022/05/25 12:10:13;;;;;;;;;12.33;10.67;;;;;20.18;46.75;98354.34;4843221;28;101805;-77
2022/05/25 12:12:55;;;;;;;;;10.67;10.00;;;;;20.17;46.82;98351.88;4851335;28;102081;-77
2022/05/25 12:15:56;;;;;;;;;9.33;8.67;;;;;20.18;46.88;98351.59;4839058;28;102128;-77
2022/05/25 12:18:47;;;;;;;;;12.00;10.00;;;;;20.18;46.87;98350.75;4857406;28;108345;-77
2022/05/25 12:21:30;;;;;;;;;12.00;10.67;;;;;20.18;46.59;98354.34;4835520;28;103394;-77
2022/05/25 12:24:02;;;;;;;;;11.00;9.67;;;;;20.18;46.61;98345.25;4844252;28;102035;-77
2022/05/25 12:26:32;;;;;;;;;10.67;10.67;;;;;20.19;46.61;98350.50;4858539;28;102247;-77
2022/05/25 12:29:14;;;;;;;;;13.67;11.00;;;;;20.19;46.67;98355.16;4858358;28;103398;-77
2022/05/25 12:31:45;;;;;;;;;12.33;10.00;;;;;20.17;46.78;98354.63;4846759;28;105044;-77
2022/05/25 12:34:13;;;;;;;;;13.00;11.00;;;;;20.17;46.98;98349.97;4838046;28;102240;-77
2022/05/25 12:36:40;;;;;;;;;11.33;9.67;;;;;20.17;46.69;98352.69;4826333;28;101917;-77
2022/05/25 12:39:09;;;;;;;;;10.00;9.67;;;;;20.17;46.62;98354.63;4861557;28;103541;-76
2022/05/25 12:41:38;;;;;;;;;13.00;11.33;;;;;20.15;46.65;98346.66;4831285;28;103403;-75
2022/05/25 12:49:46;;;;;;;;;12.67;10.00;;;;;20.16;46.58;98366.69;4834534;28;107883;-77
2022/05/25 12:52:26;;;;;;;;;9.67;9.33;;;;;20.17;46.64;98368.34;4856627;28;101866;-77
2022/05/25 12:55:00;;;;;;;;;10.33;9.67;;;;;20.15;46.75;98374.09;4855233;28;102164;-77
2022/05/25 12:57:37;;;;;;;;;10.00;9.33;;;;;20.17;46.61;98366.44;4857044;28;104790;-77
2022/05/25 13:00:21;;;;;;;;;9.67;7.67;;;;;20.15;46.41;98368.59;4845154;28;110022;-77
2022/05/25 13:02:49;;;;;;;;;11.67;9.67;;;;;20.15;46.53;98376.00;4851223;28;102023;-77
2022/05/25 13:05:58;;;;;;;;;10.67;9.33;;;;;20.14;46.70;98375.19;4858159;28;102176;-77
2022/05/25 13:08:50;;;;;;;;;10.50;10.00;;;;;20.14;46.58;98375.19;4835430;28;102084;-77
2022/05/25 13:11:41;;;;;;;;;10.67;9.67;;;;;20.14;46.85;98388.91;4845771;28;108149;-77
2022/05/25 13:14:16;;;;;;;;;10.00;8.67;;;;;20.13;46.84;98390.00;4848584;28;101959;-76
2022/05/25 13:16:47;;;;;;;;;13.33;10.33;;;;;20.14;46.58;98385.34;4856136;28;101815;-76
2022/05/25 13:19:30;;;;;;;;;8.67;8.67;;;;;20.14;47.08;98379.84;4852189;28;101794;-76
2022/05/25 13:22:03;;;;;;;;;8.67;8.00;;;;;20.13;46.88;98368.03;4848843;28;103394;-77
2022/05/25 13:25:07;;;;;;;;;9.67;8.67;;;;;20.14;46.45;98383.41;4850705;28;102051;-77
2022/05/25 13:28:11;;;;;;;;;10.00;8.67;;;;;20.13;46.78;98392.75;4838900;28;103074;-77
2022/05/25 13:30:39;;;;;;;;;9.00;9.00;;;;;20.12;46.63;98388.38;4851229;28;102244;-76
2022/05/25 13:33:25;;;;;;;;;12.00;10.00;;;;;20.15;46.55;98387.81;4863522;28;102761;-77
2022/05/25 13:36:08;;;;;;;;;7.67;6.33;;;;;20.15;46.76;98390.56;4857421;28;102090;-77
2022/05/25 13:38:38;;;;;;;;;10.67;7.33;;;;;20.14;46.39;98386.16;4840319;28;103093;-77
2022/05/25 13:41:15;;;;;;;;;9.67;8.33;;;;;20.14;46.87;98388.91;4852209;28;101879;-77
2022/05/25 13:43:52;;;;;;;;;9.67;8.00;;;;;20.14;46.72;98388.91;4845271;28;108494;-76
2022/05/25 13:46:43;;;;;;;;;9.67;7.00;;;;;20.13;46.45;98381.75;4847726;28;101877;-77
2022/05/25 13:49:31;;;;;;;;;8.00;7.67;;;;;20.12;46.75;98388.38;4848608;28;101943;-77
2022/05/25 13:52:11;;;;;;;;;8.00;6.67;;;;;20.13;46.67;98395.50;4845034;28;101819;-77
2022/05/25 13:54:38;;;;;;;;;8.67;8.00;;;;;20.11;46.53;98400.44;4836878;28;107972;-75
2022/05/25 13:57:24;;;;;;;;;9.00;8.00;;;;;20.12;46.96;98404.84;4849469;28;102903;-77
2022/05/25 13:59:51;;;;;;;;;8.67;8.33;;;;;20.13;46.67;98403.72;4852793;28;102069;-76
2022/05/25 14:02:25;;;;;;;;;10.33;8.33;;;;;20.13;46.59;98392.75;4857961;28;102086;-77
2022/05/25 14:04:54;;;;;;;;;9.00;7.67;;;;;20.13;46.72;98390.00;4855397;28;103606;-77
2022/05/25 14:07:41;;;;;;;;;7.33;6.67;;;;;20.13;46.68;98390.00;4850398;28;101828;-77
2022/05/25 14:13:31;;;;;;;;;6.67;6.67;;;;;20.12;46.69;98376.56;4854742;28;101795;-76
2022/05/25 14:16:16;;;;;;;;;8.00;8.00;;;;;20.13;46.52;98384.50;4855039;28;103400;-77
2022/05/25 14:18:51;;;;;;;;;8.67;8.00;;;;;20.11;46.78;98385.88;4848631;28;102003;-77
2022/05/25 14:21:44;;;;;;;;;11.00;8.33;;;;;20.10;46.74;98385.06;4856832;28;102352;-77
2022/05/25 14:24:16;;;;;;;;;6.00;6.00;;;;;20.12;46.85;98371.06;4854269;28;102125;-76
2022/05/25 14:26:54;;;;;;;;;11.33;6.33;;;;;20.10;46.65;98368.59;4856244;28;109767;-76
2022/05/25 14:29:23;;;;;;;;;9.67;7.33;;;;;20.12;46.70;98365.56;4847930;28;102278;-76
2022/05/25 14:31:53;;;;;;;;;8.33;8.00;;;;;20.13;46.56;98357.06;4853361;28;101827;-76
2022/05/25 14:34:22;;;;;;;;;9.00;7.67;;;;;20.13;46.65;98364.50;4850569;28;102579;-77
2022/05/25 14:36:52;;;;;;;;;8.33;7.33;;;;;20.12;46.81;98379.31;4831740;28;103376;-77
2022/05/25 14:39:27;;;;;;;;;6.00;6.00;;;;;20.13;46.43;98391.94;4855819;28;108047;-76
2022/05/25 14:42:19;;;;;;;;;6.00;6.00;;;;;20.12;46.65;98418.56;4842091;28;101924;-77
2022/05/25 14:44:50;;;;;;;;;6.00;5.67;;;;;20.12;46.60;98418.56;4852342;28;104863;-76
2022/05/25 14:47:37;;;;;;;;;6.67;6.67;;;;;20.12;46.86;98415.00;4848811;28;103399;-77
2022/05/25 14:50:29;;;;;;;;;6.67;6.00;;;;;20.12;46.96;98418.56;4861416;28;101831;-78
2022/05/25 14:53:24;;;;;;;;;8.33;6.67;;;;;20.11;46.79;98416.06;4857846;28;102243;-78
2022/05/25 14:56:01;;;;;;;;;7.00;6.67;;;;;20.10;46.57;98411.69;4859729;28;102215;-78
2022/05/25 14:58:38;;;;;;;;;6.00;5.67;;;;;20.08;46.59;98414.72;4853768;28;103413;-78
2022/05/25 15:01:06;;;;;;;;;8.67;6.67;;;;;20.08;46.81;98425.69;4855283;28;102894;-78
2022/05/25 15:03:38;;;;;;;;;7.33;6.33;;;;;20.09;46.89;98415.50;4854168;28;101859;-77
2022/05/25 15:06:07;;;;;;;;;7.00;6.00;;;;;20.10;46.61;98426.22;4842297;28;102715;-77
2022/05/25 15:08:37;;;;;;;;;7.33;5.67;;;;;20.09;46.61;98429.22;4849443;28;108357;-77
2022/05/25 15:11:28;;;;;;;;;7.67;7.33;;;;;20.09;46.63;98427.31;4855920;28;102202;-77
2022/05/25 15:20:05;;;;;;;;;7.67;4.67;;;;;20.07;46.70;98458.88;4849112;28;108235;-77
2022/05/25 15:23:22;;;;;;;;;6.33;5.67;;;;;20.08;46.83;98463.28;4830325;28;101874;-77
2022/05/25 15:25:53;;;;;;;;;8.00;7.67;;;;;20.07;46.73;98456.97;4831458;28;101812;-77
2022/05/25 15:28:20;;;;;;;;;6.00;5.67;;;;;20.08;46.82;98457.78;4843421;28;102250;-77
2022/05/25 15:30:57;;;;;;;;;7.00;7.00;;;;;20.08;46.42;98466.88;4854362;28;103417;-77
2022/05/25 15:33:26;;;;;;;;;7.33;6.00;;;;;20.06;46.61;98460.78;4846525;28;101842;-77
2022/05/25 15:36:02;;;;;;;;;7.33;6.67;;;;;20.07;46.61;98456.13;4856887;28;101589;-77
2022/05/25 15:38:29;;;;;;;;;6.33;6.33;;;;;20.06;46.72;98471.78;4845359;28;102050;-77
2022/05/25 15:40:56;;;;;;;;;7.33;6.00;;;;;20.08;46.72;98485.25;4823929;28;103540;-77
2022/05/25 15:43:25;;;;;;;;;6.67;5.67;;;;;20.07;46.57;98469.88;4831994;28;102049;-77
2022/05/25 15:45:52;;;;;;;;;7.33;5.67;;;;;20.07;46.85;98459.72;4833779;28;102163;-77
2022/05/25 15:48:21;;;;;;;;;6.33;5.67;;;;;20.07;46.53;98476.19;4837805;28;110095;-77
2022/05/25 15:50:50;;;;;;;;;6.67;5.33;;;;;20.07;46.70;98483.59;4817910;29;103534;-77
2022/05/25 15:53:18;;;;;;;;;7.00;6.33;;;;;20.08;46.81;98490.75;4831303;28;101825;-77
2022/05/25 15:55:46;;;;;;;;;5.33;5.00;;;;;20.07;46.62;98489.06;4835482;29;102279;-77
2022/05/25 15:58:14;;;;;;;;;8.67;7.33;;;;;20.06;46.36;98488.25;4822979;28;102261;-77
2022/05/25 16:00:42;;;;;;;;;6.00;5.67;;;;;20.08;46.79;98480.59;4834667;28;103355;-78
2022/05/25 16:03:20;;;;;;;;;5.33;4.67;;;;;20.07;46.69;98478.09;4837967;28;102133;-78
2022/05/25 16:05:47;;;;;;;;;5.33;5.33;;;;;20.06;46.62;98474.53;4819393;29;102040;-77
2022/05/25 16:11:00;;;;;;;;;5.67;5.33;;;;;20.05;48.37;98470.13;4815337;28;103417;-77
2022/05/25 16:13:27;;;;;;;;;6.33;5.33;;;;;20.07;48.45;98473.44;4836957;28;101992;-79
2022/05/25 16:15:54;;;;;;;;;5.00;5.00;;;;;20.09;48.13;98473.16;4818291;28;101717;-77
2022/05/25 16:18:21;;;;;;;;;4.67;4.67;;;;;20.07;47.79;98472.59;4831887;28;102243;-77
2022/05/25 16:20:49;;;;;;;;;6.33;6.00;;;;;20.07;47.63;98478.94;4819681;28;104408;-77
2022/05/25 16:23:18;;;;;;;;;8.33;6.33;;;;;20.06;47.32;98477.28;4820809;28;102892;-77
2022/05/25 16:25:46;;;;;;;;;5.33;4.33;;;;;20.06;47.33;98493.75;4828859;28;102016;-77
2022/05/25 16:28:14;;;;;;;;;4.67;4.67;;;;;20.05;47.45;98486.59;4819595;28;103708;-76
2022/05/25 16:30:42;;;;;;;;;8.33;5.33;;;;;20.03;47.29;98491.53;4836688;28;102276;-76
2022/05/25 16:33:14;;;;;;;;;7.33;6.33;;;;;20.03;47.37;98477.81;4829776;28;102042;-77
2022/05/25 16:35:42;;;;;;;;;3.00;3.00;;;;;20.05;47.53;98483.84;4831438;28;102152;-77
2022/05/25 16:38:10;;;;;;;;;4.67;4.67;;;;;20.04;47.42;98477.53;4833599;28;101876;-77
2022/05/25 16:40:38;;;;;;;;;5.00;5.00;;;;;20.04;47.23;98474.78;4842275;28;110252;-77
2022/05/25 16:43:08;;;;;;;;;5.67;5.00;;;;;20.04;47.17;98474.78;4835416;28;102033;-77
2022/05/25 16:45:36;;;;;;;;;7.00;6.33;;;;;20.05;47.22;98481.09;4833823;28;101905;-77
2022/05/25 16:48:04;;;;;;;;;7.00;7.00;;;;;20.02;47.18;98481.63;4852239;28;101914;-77
2022/05/25 16:50:33;;;;;;;;;5.67;5.67;;;;;20.03;47.32;98486.03;4857003;28;103434;-76
2022/05/25 16:53:00;;;;;;;;;6.33;5.67;;;;;20.05;47.21;98492.06;4857769;28;101867;-82
2022/05/25 16:55:28;;;;;;;;;5.67;5.67;;;;;20.10;47.31;98494.84;4843909;28;102025;-80
2022/05/25 16:57:55;;;;;;;;;5.33;5.33;;;;;20.18;48.17;98490.78;4844234;28;101833;-79
2022/05/25 17:00:23;;;;;;;;;7.33;6.67;;;;;20.23;48.07;98494.38;4856757;28;103339;-79
2022/05/25 17:02:51;;;;;;;;;7.00;7.00;;;;;20.28;49.23;98486.19;4853903;28;101747;-79
2022/05/25 17:05:20;;;;;;;;;4.33;2.33;;;;;20.33;50.15;98489.00;4844938;28;103465;-79
2022/05/25 17:07:49;;;;;;;;;7.00;6.67;;;;;20.37;49.91;98490.09;4845943;28;101894;-79
2022/05/25 17:10:17;;;;;;;;;8.33;7.00;;;;;20.44;49.62;98495.38;4851847;28;103410;-79
2022/05/25 17:12:44;;;;;;;;;9.67;8.67;;;;;20.49;49.95;98498.13;4848128;28;101772;-79
2022/05/25 17:15:12;;;;;;;;;7.67;7.67;;;;;20.53;50.43;98496.50;4844590;28;102088;-80
2022/05/25 17:17:39;;;;;;;;;9.33;8.67;;;;;20.56;50.12;98495.13;4853322;28;102344;-80
2022/05/25 17:22:53;;;;;;;;;7.67;6.67;;;;;20.64;51.25;98497.38;4827631;28;109696;-77
2022/05/25 17:25:21;;;;;;;;;9.67;9.67;;;;;20.71;50.60;98496.03;4846021;28;102305;-79
2022/05/25 17:27:48;;;;;;;;;10.67;9.67;;;;;20.74;51.29;98502.91;4853689;28;101790;-80
2022/05/25 17:30:16;;;;;;;;;9.33;8.00;;;;;20.78;51.14;98498.53;4838756;28;103421;-80
2022/05/25 17:32:43;;;;;;;;;11.67;10.00;;;;;20.82;50.65;98496.88;4855736;28;101797;-79
2022/05/25 17:35:10;;;;;;;;;8.00;7.33;;;;;20.86;51.01;98498.00;4850929;28;101818;-79
2022/05/25 17:43:09;;;;;;;;;11.33;9.00;;;;;20.97;50.66;98494.19;4850943;28;101603;-78
2022/05/25 17:45:36;;;;;;;;;14.00;11.00;;;;;21.01;51.06;98492.56;4846547;28;103479;-79
2022/05/25 17:48:04;;;;;;;;;16.67;16.33;;;;;21.04;50.84;98503.00;4842380;28;109717;-79
2022/05/25 17:50:34;;;;;;;;;23.50;20.00;;;;;21.08;50.99;98501.34;4846645;28;103403;-78
2022/05/25 17:53:05;;;;;;;;;28.00;25.25;;;;;21.11;50.87;98494.50;4846170;28;101778;-78
2022/05/25 17:55:35;;;;;;;;;38.00;32.75;;;;;21.15;51.20;98493.72;4851511;28;101768;-79
2022/05/25 17:58:03;;;;;;;;;46.75;37.75;;;;;21.17;51.08;98494.25;4838018;28;102211;-79
2022/05/25 18:00:31;;;;;;;;;45.25;38.25;;;;;21.20;51.48;98498.41;4855491;28;103425;-79
2022/05/25 18:02:58;;;;;;;;;52.75;42.75;;;;;21.22;51.28;98486.03;4852687;28;101952;-79
2022/05/25 18:05:25;;;;;;;;;53.50;41.75;;;;;21.24;51.52;98494.84;4860997;28;102024;-78
2022/05/25 18:07:52;;;;;;;;;55.50;44.00;;;;;21.29;51.82;98505.03;4832650;28;102093;-79
2022/05/25 18:10:20;;;;;;;;;57.25;46.00;;;;;21.30;51.29;98504.72;4852706;28;103111;-78
2022/05/25 18:12:48;;;;;;;;;54.50;44.75;;;;;21.31;51.53;98500.91;4865113;28;102358;-79
2022/05/25 18:15:20;;;;;;;;;54.50;44.75;;;;;21.36;51.75;98495.41;4854639;28;102114;-78
2022/05/25 18:17:51;;;;;;;;;56.25;44.75;;;;;21.39;51.34;98509.72;4866201;28;101869;-78
2022/05/25 18:20:22;;;;;;;;;58.50;46.00;;;;;21.41;51.17;98510.25;4827927;28;103423;-79
2022/05/25 18:22:49;;;;;;;;;58.75;45.50;;;;;21.40;52.37;98520.44;4853929;28;102978;-81
2022/05/25 18:25:17;;;;;;;;;56.25;44.50;;;;;21.41;52.15;98522.09;4847380;28;103459;-80